Terminal Aerodrome Forecast
Issued by NWS Billings, MT

Home | Current Version | Previous Version | Graphics & Text | Print | Product List | Glossary On
Versions: 1 2 3 4 5 6 7 8 9 10 11 12 13 14 15 16 17 18 19 20 21 22 23 24
000
FTUS45 KBYZ 212329
TAFMLS
TAF
KMLS 212329Z 2200/2224 29020G30KT P6SM -RA BKN040 OVC100
     FM220400 32020G30KT P6SM VCSH SCT030 BKN060
     FM221200 32018KT 5SM -SN OVC025
     FM221800 32016KT 2SM -SN OVC015=

USA.gov is the U.S. government's official web portal to all federal, state and local government web resources and services.